sensor_id;sensor_type;location;lat;lon;timestamp;temperature;humidity
50586;DHT22;36542;51.700;8.846;2023-11-19T00:00:33;8.30;99.90
50586;DHT22;36542;51.700;8.846;2023-11-19T00:03:19;8.30;99.90
50586;DHT22;36542;51.700;8.846;2023-11-19T00:05:45;8.40;99.90
50586;DHT22;36542;51.700;8.846;2023-11-19T00:08:20;8.40;99.90
50586;DHT22;36542;51.700;8.846;2023-11-19T00:10:46;8.40;99.90
50586;DHT22;36542;51.700;8.846;2023-11-19T00:13:20;8.30;99.90
50586;DHT22;36542;51.700;8.846;2023-11-19T00:15:46;8.30;99.90
50586;DHT22;36542;51.700;8.846;2023-11-19T00:18:53;8.40;99.90
50586;DHT22;36542;51.700;8.846;2023-11-19T00:21:54;8.30;99.90
50586;DHT22;36542;51.700;8.846;2023-11-19T00:27:34;8.30;99.90
50586;DHT22;36542;51.700;8.846;2023-11-19T00:30:09;8.40;99.90
50586;DHT22;36542;51.700;8.846;2023-11-19T00:32:57;8.40;99.90
50586;DHT22;36542;51.700;8.846;2023-11-19T00:35:31;8.40;99.90
50586;DHT22;36542;51.700;8.846;2023-11-19T00:37:58;8.40;99.90
50586;DHT22;36542;51.700;8.846;2023-11-19T00:40:31;8.40;99.90
50586;DHT22;36542;51.700;8.846;2023-11-19T00:43:20;8.50;99.90
50586;DHT22;36542;51.700;8.846;2023-11-19T00:45:56;8.60;99.90
50586;DHT22;36542;51.700;8.846;2023-11-19T00:48:21;8.60;99.90
50586;DHT22;36542;51.700;8.846;2023-11-19T00:50:49;8.70;99.90
50586;DHT22;36542;51.700;8.846;2023-11-19T00:54:09;8.70;99.90
50586;DHT22;36542;51.700;8.846;2023-11-19T00:57:01;8.90;99.90
50586;DHT22;36542;51.700;8.846;2023-11-19T00:59:56;8.90;99.90
50586;DHT22;36542;51.700;8.846;2023-11-19T01:02:21;8.90;99.90
50586;DHT22;36542;51.700;8.846;2023-11-19T01:05:19;8.90;99.90
50586;DHT22;36542;51.700;8.846;2023-11-19T01:08:10;9.00;99.90
50586;DHT22;36542;51.700;8.846;2023-11-19T01:10:45;9.00;99.90
50586;DHT22;36542;51.700;8.846;2023-11-19T01:13:11;9.10;99.90
50586;DHT22;36542;51.700;8.846;2023-11-19T01:15:56;9.00;99.90
50586;DHT22;36542;51.700;8.846;2023-11-19T01:18:22;9.10;99.90
50586;DHT22;36542;51.700;8.846;2023-11-19T01:20:47;9.20;99.90
50586;DHT22;36542;51.700;8.846;2023-11-19T01:23:42;9.20;99.90
50586;DHT22;36542;51.700;8.846;2023-11-19T01:27:39;9.20;99.90
50586;DHT22;36542;51.700;8.846;2023-11-19T01:30:07;9.40;99.90
50586;DHT22;36542;51.700;8.846;2023-11-19T01:32:44;9.50;99.90
50586;DHT22;36542;51.700;8.846;2023-11-19T01:35:12;9.60;99.90
50586;DHT22;36542;51.700;8.846;2023-11-19T01:37:48;9.70;99.90
50586;DHT22;36542;51.700;8.846;2023-11-19T01:40:14;9.70;99.90
50586;DHT22;36542;51.700;8.846;2023-11-19T01:42:58;9.70;99.90
50586;DHT22;36542;51.700;8.846;2023-11-19T01:45:30;9.90;99.90
50586;DHT22;36542;51.700;8.846;2023-11-19T01:47:58;9.90;99.90
50586;DHT22;36542;51.700;8.846;2023-11-19T01:50:45;10.00;99.90
50586;DHT22;36542;51.700;8.846;2023-11-19T01:53:31;10.00;99.90
50586;DHT22;36542;51.700;8.846;2023-11-19T01:55:57;10.10;99.90
50586;DHT22;36542;51.700;8.846;2023-11-19T02:01:42;10.00;99.90
50586;DHT22;36542;51.700;8.846;2023-11-19T02:04:09;10.00;99.90
50586;DHT22;36542;51.700;8.846;2023-11-19T02:07:15;10.00;99.90
50586;DHT22;36542;51.700;8.846;2023-11-19T02:09:43;10.00;99.90
50586;DHT22;36542;51.700;8.846;2023-11-19T02:12:10;10.00;99.90
50586;DHT22;36542;51.700;8.846;2023-11-19T02:14:46;9.90;99.90
50586;DHT22;36542;51.700;8.846;2023-11-19T02:17:32;9.90;99.90
50586;DHT22;36542;51.700;8.846;2023-11-19T02:23:19;9.90;99.90
50586;DHT22;36542;51.700;8.846;2023-11-19T02:29:09;9.90;99.90
50586;DHT22;36542;51.700;8.846;2023-11-19T02:34:58;10.00;99.90
50586;DHT22;36542;51.700;8.846;2023-11-19T02:37:23;10.00;99.90
50586;DHT22;36542;51.700;8.846;2023-11-19T02:43:20;10.10;99.90
50586;DHT22;36542;51.700;8.846;2023-11-19T02:46:11;10.10;99.90
50586;DHT22;36542;51.700;8.846;2023-11-19T02:52:31;10.10;99.90
50586;DHT22;36542;51.700;8.846;2023-11-19T02:55:00;10.20;99.90
50586;DHT22;36542;51.700;8.846;2023-11-19T02:57:32;10.20;99.90
50586;DHT22;36542;51.700;8.846;2023-11-19T03:00:00;10.30;99.90
50586;DHT22;36542;51.700;8.846;2023-11-19T03:02:55;10.40;99.90
50586;DHT22;36542;51.700;8.846;2023-11-19T03:05:44;10.40;99.90
50586;DHT22;36542;51.700;8.846;2023-11-19T03:11:47;10.50;99.90
50586;DHT22;36542;51.700;8.846;2023-11-19T03:14:16;10.50;99.90
50586;DHT22;36542;51.700;8.846;2023-11-19T03:20:20;10.40;99.90
50586;DHT22;36542;51.700;8.846;2023-11-19T03:22:55;10.40;99.90
50586;DHT22;36542;51.700;8.846;2023-11-19T03:25:44;10.50;99.90
50586;DHT22;36542;51.700;8.846;2023-11-19T03:28:09;10.50;99.90
50586;DHT22;36542;51.700;8.846;2023-11-19T03:30:45;10.50;99.90
50586;DHT22;36542;51.700;8.846;2023-11-19T03:33:20;10.50;99.90
50586;DHT22;36542;51.700;8.846;2023-11-19T03:35:45;10.50;99.90
50586;DHT22;36542;51.700;8.846;2023-11-19T03:41:22;10.50;99.90
50586;DHT22;36542;51.700;8.846;2023-11-19T03:44:14;10.50;99.90
50586;DHT22;36542;51.700;8.846;2023-11-19T03:46:46;10.50;99.90
50586;DHT22;36542;51.700;8.846;2023-11-19T03:49:21;10.50;99.90
50586;DHT22;36542;51.700;8.846;2023-11-19T03:51:48;10.50;99.90
50586;DHT22;36542;51.700;8.846;2023-11-19T03:57:45;10.50;99.90
50586;DHT22;36542;51.700;8.846;2023-11-19T04:00:34;10.50;99.90
50586;DHT22;36542;51.700;8.846;2023-11-19T04:03:08;10.50;99.90
50586;DHT22;36542;51.700;8.846;2023-11-19T04:05:34;10.60;99.90
50586;DHT22;36542;51.700;8.846;2023-11-19T04:08:31;10.60;99.90
50586;DHT22;36542;51.700;8.846;2023-11-19T04:11:45;10.50;99.90
50586;DHT22;36542;51.700;8.846;2023-11-19T04:14:21;10.60;99.90
50586;DHT22;36542;51.700;8.846;2023-11-19T04:25:55;10.60;99.90
50586;DHT22;36542;51.700;8.846;2023-11-19T04:29:11;10.60;99.90
50586;DHT22;36542;51.700;8.846;2023-11-19T04:31:46;10.70;99.90
50586;DHT22;36542;51.700;8.846;2023-11-19T04:34:20;10.70;99.90
50586;DHT22;36542;51.700;8.846;2023-11-19T04:36:46;10.70;99.90
50586;DHT22;36542;51.700;8.846;2023-11-19T04:39:14;10.70;99.90
50586;DHT22;36542;51.700;8.846;2023-11-19T04:41:50;10.70;99.90
50586;DHT22;36542;51.700;8.846;2023-11-19T04:44:57;10.80;99.90
50586;DHT22;36542;51.700;8.846;2023-11-19T04:47:40;10.80;99.90
50586;DHT22;36542;51.700;8.846;2023-11-19T04:50:21;10.80;99.90
50586;DHT22;36542;51.700;8.846;2023-11-19T04:52:46;10.80;99.90
50586;DHT22;36542;51.700;8.846;2023-11-19T04:55:31;10.80;99.90
50586;DHT22;36542;51.700;8.846;2023-11-19T04:58:20;10.90;99.90
50586;DHT22;36542;51.700;8.846;2023-11-19T05:00:56;10.90;99.90
50586;DHT22;36542;51.700;8.846;2023-11-19T05:03:24;10.90;99.90
50586;DHT22;36542;51.700;8.846;2023-11-19T05:05:55;10.90;99.90
50586;DHT22;36542;51.700;8.846;2023-11-19T05:08:39;10.90;99.90
50586;DHT22;36542;51.700;8.846;2023-11-19T05:14:46;10.90;99.90
50586;DHT22;36542;51.700;8.846;2023-11-19T05:17:17;10.90;99.90
50586;DHT22;36542;51.700;8.846;2023-11-19T05:19:46;10.90;99.90
50586;DHT22;36542;51.700;8.846;2023-11-19T05:29:01;10.90;99.90
50586;DHT22;36542;51.700;8.846;2023-11-19T05:31:33;10.80;99.90
50586;DHT22;36542;51.700;8.846;2023-11-19T05:34:09;10.80;99.90
50586;DHT22;36542;51.700;8.846;2023-11-19T05:36:36;10.80;99.90
50586;DHT22;36542;51.700;8.846;2023-11-19T05:39:33;10.80;99.90
50586;DHT22;36542;51.700;8.846;2023-11-19T05:44:58;10.80;99.90
50586;DHT22;36542;51.700;8.846;2023-11-19T05:47:26;10.70;99.90
50586;DHT22;36542;51.700;8.846;2023-11-19T05:50:20;10.70;99.90
50586;DHT22;36542;51.700;8.846;2023-11-19T05:52:46;10.70;99.90
50586;DHT22;36542;51.700;8.846;2023-11-19T05:55:31;10.60;99.90
50586;DHT22;36542;51.700;8.846;2023-11-19T05:58:53;10.50;99.90
50586;DHT22;36542;51.700;8.846;2023-11-19T06:01:19;10.50;99.90
50586;DHT22;36542;51.700;8.846;2023-11-19T06:03:47;10.50;99.90
50586;DHT22;36542;51.700;8.846;2023-11-19T06:06:23;10.50;99.90
50586;DHT22;36542;51.700;8.846;2023-11-19T06:09:09;10.60;99.90
50586;DHT22;36542;51.700;8.846;2023-11-19T06:11:35;10.60;99.90
50586;DHT22;36542;51.700;8.846;2023-11-19T06:14:21;10.60;99.90
50586;DHT22;36542;51.700;8.846;2023-11-19T06:16:46;10.60;99.90
50586;DHT22;36542;51.700;8.846;2023-11-19T06:19:33;10.50;99.90
50586;DHT22;36542;51.700;8.846;2023-11-19T06:22:21;10.50;99.90
50586;DHT22;36542;51.700;8.846;2023-11-19T06:25:02;10.50;99.90
50586;DHT22;36542;51.700;8.846;2023-11-19T06:31:21;10.50;99.90
50586;DHT22;36542;51.700;8.846;2023-11-19T06:33:57;10.50;99.90
50586;DHT22;36542;51.700;8.846;2023-11-19T06:39:57;10.60;99.90
50586;DHT22;36542;51.700;8.846;2023-11-19T06:42:45;10.70;99.90
50586;DHT22;36542;51.700;8.846;2023-11-19T06:51:09;10.70;99.90
50586;DHT22;36542;51.700;8.846;2023-11-19T06:53:38;10.60;99.90
50586;DHT22;36542;51.700;8.846;2023-11-19T06:56:34;10.60;99.90
50586;DHT22;36542;51.700;8.846;2023-11-19T07:02:11;10.40;99.90
50586;DHT22;36542;51.700;8.846;2023-11-19T07:05:06;10.30;99.90
50586;DHT22;36542;51.700;8.846;2023-11-19T07:08:15;10.30;99.90
50586;DHT22;36542;51.700;8.846;2023-11-19T07:11:09;10.30;99.90
50586;DHT22;36542;51.700;8.846;2023-11-19T07:13:44;10.30;99.90
50586;DHT22;36542;51.700;8.846;2023-11-19T07:16:20;10.40;99.90
50586;DHT22;36542;51.700;8.846;2023-11-19T07:18:48;10.40;99.90
50586;DHT22;36542;51.700;8.846;2023-11-19T07:21:15;10.50;99.90
50586;DHT22;36542;51.700;8.846;2023-11-19T07:23:40;10.50;99.90
50586;DHT22;36542;51.700;8.846;2023-11-19T07:26:07;10.50;99.90
50586;DHT22;36542;51.700;8.846;2023-11-19T07:28:33;10.50;99.90
50586;DHT22;36542;51.700;8.846;2023-11-19T07:30:59;10.50;99.90
50586;DHT22;36542;51.700;8.846;2023-11-19T07:33:25;10.50;99.90
50586;DHT22;36542;51.700;8.846;2023-11-19T07:35:53;10.50;99.90
50586;DHT22;36542;51.700;8.846;2023-11-19T07:38:45;10.60;99.90
50586;DHT22;36542;51.700;8.846;2023-11-19T07:41:11;10.60;99.90
50586;DHT22;36542;51.700;8.846;2023-11-19T07:44:09;10.60;99.90
50586;DHT22;36542;51.700;8.846;2023-11-19T07:46:35;10.50;99.90
50586;DHT22;36542;51.700;8.846;2023-11-19T07:57:03;10.50;99.90
50586;DHT22;36542;51.700;8.846;2023-11-19T07:59:54;10.70;99.90
50586;DHT22;36542;51.700;8.846;2023-11-19T08:02:52;10.80;99.90
50586;DHT22;36542;51.700;8.846;2023-11-19T08:09:20;11.20;99.90
50586;DHT22;36542;51.700;8.846;2023-11-19T08:11:54;11.30;99.90
50586;DHT22;36542;51.700;8.846;2023-11-19T08:14:45;11.40;99.90
50586;DHT22;36542;51.700;8.846;2023-11-19T08:17:30;11.60;99.90
50586;DHT22;36542;51.700;8.846;2023-11-19T08:20:19;11.70;99.90
50586;DHT22;36542;51.700;8.846;2023-11-19T08:23:10;11.50;99.90
50586;DHT22;36542;51.700;8.846;2023-11-19T08:28:47;11.20;99.90
50586;DHT22;36542;51.700;8.846;2023-11-19T08:31:25;11.00;99.90
50586;DHT22;36542;51.700;8.846;2023-11-19T08:33:59;11.00;99.90
50586;DHT22;36542;51.700;8.846;2023-11-19T08:36:34;10.90;99.90
50586;DHT22;36542;51.700;8.846;2023-11-19T08:39:07;10.80;99.90
50586;DHT22;36542;51.700;8.846;2023-11-19T08:41:54;10.70;99.90
50586;DHT22;36542;51.700;8.846;2023-11-19T08:44:20;10.80;99.90
50586;DHT22;36542;51.700;8.846;2023-11-19T08:46:52;10.90;99.90
50586;DHT22;36542;51.700;8.846;2023-11-19T08:49:21;10.90;99.90
50586;DHT22;36542;51.700;8.846;2023-11-19T08:51:46;11.00;99.90
50586;DHT22;36542;51.700;8.846;2023-11-19T08:54:13;11.00;99.90
50586;DHT22;36542;51.700;8.846;2023-11-19T08:56:39;11.00;99.90
50586;DHT22;36542;51.700;8.846;2023-11-19T08:59:28;11.10;99.90
50586;DHT22;36542;51.700;8.846;2023-11-19T09:01:57;11.10;99.90
50586;DHT22;36542;51.700;8.846;2023-11-19T09:04:22;11.10;99.90
50586;DHT22;36542;51.700;8.846;2023-11-19T09:10:10;11.30;99.90
50586;DHT22;36542;51.700;8.846;2023-11-19T09:12:47;11.30;99.90
50586;DHT22;36542;51.700;8.846;2023-11-19T09:18:50;11.30;99.90
50586;DHT22;36542;51.700;8.846;2023-11-19T09:22:08;11.30;99.90
50586;DHT22;36542;51.700;8.846;2023-11-19T09:31:20;11.30;99.90
50586;DHT22;36542;51.700;8.846;2023-11-19T09:36:57;11.30;99.90
50586;DHT22;36542;51.700;8.846;2023-11-19T09:39:23;11.30;99.90
50586;DHT22;36542;51.700;8.846;2023-11-19T09:41:51;11.40;99.90
50586;DHT22;36542;51.700;8.846;2023-11-19T09:44:19;11.40;99.90
50586;DHT22;36542;51.700;8.846;2023-11-19T09:46:47;11.40;99.90
50586;DHT22;36542;51.700;8.846;2023-11-19T09:49:14;11.50;99.90
50586;DHT22;36542;51.700;8.846;2023-11-19T09:51:41;11.50;99.90
50586;DHT22;36542;51.700;8.846;2023-11-19T09:54:09;11.70;99.90
50586;DHT22;36542;51.700;8.846;2023-11-19T09:56:36;11.70;99.90
50586;DHT22;36542;51.700;8.846;2023-11-19T09:59:02;11.70;99.90
50586;DHT22;36542;51.700;8.846;2023-11-19T10:01:28;11.70;99.90
50586;DHT22;36542;51.700;8.846;2023-11-19T10:03:57;11.70;99.90
50586;DHT22;36542;51.700;8.846;2023-11-19T10:06:32;11.50;99.90
50586;DHT22;36542;51.700;8.846;2023-11-19T10:08:58;11.30;99.90
50586;DHT22;36542;51.700;8.846;2023-11-19T10:17:36;11.30;99.90
50586;DHT22;36542;51.700;8.846;2023-11-19T10:23:22;11.80;99.90
50586;DHT22;36542;51.700;8.846;2023-11-19T10:26:10;12.00;99.90
50586;DHT22;36542;51.700;8.846;2023-11-19T10:31:57;12.00;99.90
50586;DHT22;36542;51.700;8.846;2023-11-19T10:34:56;11.80;99.90
50586;DHT22;36542;51.700;8.846;2023-11-19T10:37:50;12.00;99.90
50586;DHT22;36542;51.700;8.846;2023-11-19T10:43:45;12.70;99.90
50586;DHT22;36542;51.700;8.846;2023-11-19T10:46:14;12.90;99.90
50586;DHT22;36542;51.700;8.846;2023-11-19T10:51:46;13.00;99.90
50586;DHT22;36542;51.700;8.846;2023-11-19T10:57:26;12.60;99.90
50586;DHT22;36542;51.700;8.846;2023-11-19T11:00:09;12.50;99.90
50586;DHT22;36542;51.700;8.846;2023-11-19T11:02:55;12.60;99.90
50586;DHT22;36542;51.700;8.846;2023-11-19T11:05:22;12.60;99.90
50586;DHT22;36542;51.700;8.846;2023-11-19T11:08:15;12.50;99.90
50586;DHT22;36542;51.700;8.846;2023-11-19T11:11:24;12.40;99.90
50586;DHT22;36542;51.700;8.846;2023-11-19T11:20:16;12.10;99.90
50586;DHT22;36542;51.700;8.846;2023-11-19T11:25:53;12.00;99.90
50586;DHT22;36542;51.700;8.846;2023-11-19T11:28:39;11.80;99.90
50586;DHT22;36542;51.700;8.846;2023-11-19T11:41:46;11.60;99.90
50586;DHT22;36542;51.700;8.846;2023-11-19T11:55:57;11.50;99.90
50586;DHT22;36542;51.700;8.846;2023-11-19T11:58:31;11.20;99.90
50586;DHT22;36542;51.700;8.846;2023-11-19T12:01:10;11.10;99.90
50586;DHT22;36542;51.700;8.846;2023-11-19T12:03:59;11.00;99.90
50586;DHT22;36542;51.700;8.846;2023-11-19T12:06:33;10.90;99.90
50586;DHT22;36542;51.700;8.846;2023-11-19T12:09:21;10.70;99.90
50586;DHT22;36542;51.700;8.846;2023-11-19T12:17:59;10.50;99.90
50586;DHT22;36542;51.700;8.846;2023-11-19T12:21:10;10.30;99.90
50586;DHT22;36542;51.700;8.846;2023-11-19T12:24:13;10.00;99.90
50586;DHT22;36542;51.700;8.846;2023-11-19T12:33:22;10.10;99.90
50586;DHT22;36542;51.700;8.846;2023-11-19T12:41:58;10.40;99.90
50586;DHT22;36542;51.700;8.846;2023-11-19T12:44:56;10.50;99.90
50586;DHT22;36542;51.700;8.846;2023-11-19T12:50:58;10.50;99.90
50586;DHT22;36542;51.700;8.846;2023-11-19T12:57:11;10.70;99.90
50586;DHT22;36542;51.700;8.846;2023-11-19T13:00:22;10.80;99.90
50586;DHT22;36542;51.700;8.846;2023-11-19T13:09:35;11.30;99.90
50586;DHT22;36542;51.700;8.846;2023-11-19T13:15:44;11.50;99.90
50586;DHT22;36542;51.700;8.846;2023-11-19T13:18:33;11.40;99.90
50586;DHT22;36542;51.700;8.846;2023-11-19T13:21:08;11.40;99.90
50586;DHT22;36542;51.700;8.846;2023-11-19T13:23:42;11.50;99.90
50586;DHT22;36542;51.700;8.846;2023-11-19T13:26:20;11.50;99.90
50586;DHT22;36542;51.700;8.846;2023-11-19T13:29:06;11.50;99.90
50586;DHT22;36542;51.700;8.846;2023-11-19T13:31:34;11.50;99.90
50586;DHT22;36542;51.700;8.846;2023-11-19T13:34:17;11.40;99.90
50586;DHT22;36542;51.700;8.846;2023-11-19T13:36:45;11.30;99.90
50586;DHT22;36542;51.700;8.846;2023-11-19T13:39:10;11.30;99.90
50586;DHT22;36542;51.700;8.846;2023-11-19T13:41:43;11.30;99.90
50586;DHT22;36542;51.700;8.846;2023-11-19T13:44:09;11.30;99.90
50586;DHT22;36542;51.700;8.846;2023-11-19T13:46:34;11.40;99.90
50586;DHT22;36542;51.700;8.846;2023-11-19T13:49:00;11.40;99.90
50586;DHT22;36542;51.700;8.846;2023-11-19T13:51:28;11.50;99.90
50586;DHT22;36542;51.700;8.846;2023-11-19T13:53:56;11.50;99.90
50586;DHT22;36542;51.700;8.846;2023-11-19T13:56:22;11.50;99.90
50586;DHT22;36542;51.700;8.846;2023-11-19T13:58:47;11.50;99.90
50586;DHT22;36542;51.700;8.846;2023-11-19T14:01:18;11.40;99.90
50586;DHT22;36542;51.700;8.846;2023-11-19T14:04:10;11.40;99.90
50586;DHT22;36542;51.700;8.846;2023-11-19T14:06:45;11.30;99.90
50586;DHT22;36542;51.700;8.846;2023-11-19T14:09:10;11.20;99.90
50586;DHT22;36542;51.700;8.846;2023-11-19T14:11:40;11.10;99.90
50586;DHT22;36542;51.700;8.846;2023-11-19T14:14:33;11.00;99.90
50586;DHT22;36542;51.700;8.846;2023-11-19T14:17:17;11.00;99.90
50586;DHT22;36542;51.700;8.846;2023-11-19T14:23:10;10.90;99.90
50586;DHT22;36542;51.700;8.846;2023-11-19T14:25:45;10.90;99.90
50586;DHT22;36542;51.700;8.846;2023-11-19T14:28:20;10.90;99.90
50586;DHT22;36542;51.700;8.846;2023-11-19T14:30:45;10.90;99.90
50586;DHT22;36542;51.700;8.846;2023-11-19T14:33:20;10.90;99.90
50586;DHT22;36542;51.700;8.846;2023-11-19T14:36:06;10.90;99.90
50586;DHT22;36542;51.700;8.846;2023-11-19T14:38:47;10.80;99.90
50586;DHT22;36542;51.700;8.846;2023-11-19T14:44:46;10.50;99.90
50586;DHT22;36542;51.700;8.846;2023-11-19T14:47:54;10.30;99.90
50586;DHT22;36542;51.700;8.846;2023-11-19T14:50:30;10.20;99.90
50586;DHT22;36542;51.700;8.846;2023-11-19T14:53:01;10.10;99.90
50586;DHT22;36542;51.700;8.846;2023-11-19T14:55:47;10.00;99.90
50586;DHT22;36542;51.700;8.846;2023-11-19T15:01:13;9.90;99.90
50586;DHT22;36542;51.700;8.846;2023-11-19T15:07:18;9.90;99.90
50586;DHT22;36542;51.700;8.846;2023-11-19T15:10:09;9.90;99.90
50586;DHT22;36542;51.700;8.846;2023-11-19T15:12:44;9.90;99.90
50586;DHT22;36542;51.700;8.846;2023-11-19T15:15:33;9.90;99.90
50586;DHT22;36542;51.700;8.846;2023-11-19T15:17:58;9.80;99.90
50586;DHT22;36542;51.700;8.846;2023-11-19T15:24:11;9.70;99.90
50586;DHT22;36542;51.700;8.846;2023-11-19T15:26:43;9.80;99.90
50586;DHT22;36542;51.700;8.846;2023-11-19T15:29:09;9.80;99.90
50586;DHT22;36542;51.700;8.846;2023-11-19T15:31:34;9.80;99.90
50586;DHT22;36542;51.700;8.846;2023-11-19T15:34:05;9.80;99.90
50586;DHT22;36542;51.700;8.846;2023-11-19T15:36:33;9.90;99.90
50586;DHT22;36542;51.700;8.846;2023-11-19T15:39:07;9.90;99.90
50586;DHT22;36542;51.700;8.846;2023-11-19T15:42:01;10.00;99.90
50586;DHT22;36542;51.700;8.846;2023-11-19T15:44:55;10.00;99.90
50586;DHT22;36542;51.700;8.846;2023-11-19T15:47:44;10.10;99.90
50586;DHT22;36542;51.700;8.846;2023-11-19T15:50:30;10.10;99.90
50586;DHT22;36542;51.700;8.846;2023-11-19T15:52:56;10.10;99.90
50586;DHT22;36542;51.700;8.846;2023-11-19T15:55:22;10.10;99.90
50586;DHT22;36542;51.700;8.846;2023-11-19T16:00:56;10.10;99.90
50586;DHT22;36542;51.700;8.846;2023-11-19T16:14:10;10.20;99.90
50586;DHT22;36542;51.700;8.846;2023-11-19T16:16:44;10.20;99.90
50586;DHT22;36542;51.700;8.846;2023-11-19T16:19:10;10.20;99.90
50586;DHT22;36542;51.700;8.846;2023-11-19T16:21:36;10.10;99.90
50586;DHT22;36542;51.700;8.846;2023-11-19T16:24:10;10.10;99.90
50586;DHT22;36542;51.700;8.846;2023-11-19T16:26:36;10.10;99.90
50586;DHT22;36542;51.700;8.846;2023-11-19T16:29:04;10.10;99.90
50586;DHT22;36542;51.700;8.846;2023-11-19T16:31:32;10.10;99.90
50586;DHT22;36542;51.700;8.846;2023-11-19T16:34:17;10.10;99.90
50586;DHT22;36542;51.700;8.846;2023-11-19T16:37:21;10.20;99.90
50586;DHT22;36542;51.700;8.846;2023-11-19T16:39:51;10.20;99.90
50586;DHT22;36542;51.700;8.846;2023-11-19T16:42:20;10.20;99.90
50586;DHT22;36542;51.700;8.846;2023-11-19T16:44:46;10.20;99.90
50586;DHT22;36542;51.700;8.846;2023-11-19T16:47:11;10.30;99.90
50586;DHT22;36542;51.700;8.846;2023-11-19T16:49:55;10.30;99.90
50586;DHT22;36542;51.700;8.846;2023-11-19T16:52:20;10.30;99.90
50586;DHT22;36542;51.700;8.846;2023-11-19T16:54:47;10.30;99.90
50586;DHT22;36542;51.700;8.846;2023-11-19T16:57:22;10.40;99.90
50586;DHT22;36542;51.700;8.846;2023-11-19T16:59:48;10.40;99.90
50586;DHT22;36542;51.700;8.846;2023-11-19T17:02:22;10.50;99.90
50586;DHT22;36542;51.700;8.846;2023-11-19T17:05:01;10.50;99.90
50586;DHT22;36542;51.700;8.846;2023-11-19T17:07:27;10.40;99.90
50586;DHT22;36542;51.700;8.846;2023-11-19T17:10:24;10.50;99.90
50586;DHT22;36542;51.700;8.846;2023-11-19T17:16:07;10.50;99.90
50586;DHT22;36542;51.700;8.846;2023-11-19T17:22:10;10.50;99.90
50586;DHT22;36542;51.700;8.846;2023-11-19T17:24:43;10.50;99.90
50586;DHT22;36542;51.700;8.846;2023-11-19T17:27:27;10.50;99.90
50586;DHT22;36542;51.700;8.846;2023-11-19T17:36:33;10.40;99.90
50586;DHT22;36542;51.700;8.846;2023-11-19T17:38:58;10.40;99.90
50586;DHT22;36542;51.700;8.846;2023-11-19T17:41:28;10.40;99.90
50586;DHT22;36542;51.700;8.846;2023-11-19T17:43:53;10.40;99.90
50586;DHT22;36542;51.700;8.846;2023-11-19T17:46:19;10.40;99.90
50586;DHT22;36542;51.700;8.846;2023-11-19T17:48:47;10.40;99.90
50586;DHT22;36542;51.700;8.846;2023-11-19T17:51:13;10.30;99.90
50586;DHT22;36542;51.700;8.846;2023-11-19T17:53:51;10.20;99.90
50586;DHT22;36542;51.700;8.846;2023-11-19T17:56:19;10.10;99.90
50586;DHT22;36542;51.700;8.846;2023-11-19T17:58:45;10.00;99.90
50586;DHT22;36542;51.700;8.846;2023-11-19T18:01:20;10.00;99.90
50586;DHT22;36542;51.700;8.846;2023-11-19T18:03:55;9.90;99.90
50586;DHT22;36542;51.700;8.846;2023-11-19T18:06:20;9.90;99.90
50586;DHT22;36542;51.700;8.846;2023-11-19T18:08:48;9.80;99.90
50586;DHT22;36542;51.700;8.846;2023-11-19T18:11:16;9.80;99.90
50586;DHT22;36542;51.700;8.846;2023-11-19T18:13:49;9.80;99.90
50586;DHT22;36542;51.700;8.846;2023-11-19T18:16:42;9.80;99.90
50586;DHT22;36542;51.700;8.846;2023-11-19T18:19:35;9.80;99.90
50586;DHT22;36542;51.700;8.846;2023-11-19T18:25:22;9.80;99.90
50586;DHT22;36542;51.700;8.846;2023-11-19T18:28:08;9.70;99.90
50586;DHT22;36542;51.700;8.846;2023-11-19T18:30:33;9.70;99.90
50586;DHT22;36542;51.700;8.846;2023-11-19T18:33:23;9.70;99.90
50586;DHT22;36542;51.700;8.846;2023-11-19T18:38:58;9.60;99.90
50586;DHT22;36542;51.700;8.846;2023-11-19T18:41:26;9.60;99.90
50586;DHT22;36542;51.700;8.846;2023-11-19T18:44:23;9.60;99.90
50586;DHT22;36542;51.700;8.846;2023-11-19T18:46:58;9.60;99.90
50586;DHT22;36542;51.700;8.846;2023-11-19T18:49:33;9.50;99.90
50586;DHT22;36542;51.700;8.846;2023-11-19T18:52:11;9.60;99.90
50586;DHT22;36542;51.700;8.846;2023-11-19T18:54:56;9.60;99.90
50586;DHT22;36542;51.700;8.846;2023-11-19T19:00:57;9.60;99.90
50586;DHT22;36542;51.700;8.846;2023-11-19T19:03:26;9.50;99.90
50586;DHT22;36542;51.700;8.846;2023-11-19T19:06:20;9.50;99.90
50586;DHT22;36542;51.700;8.846;2023-11-19T19:08:46;9.50;99.90
50586;DHT22;36542;51.700;8.846;2023-11-19T19:11:15;9.50;99.90
50586;DHT22;36542;51.700;8.846;2023-11-19T19:13:44;9.40;99.90
50586;DHT22;36542;51.700;8.846;2023-11-19T19:16:10;9.40;99.90
50586;DHT22;36542;51.700;8.846;2023-11-19T19:18:36;9.40;99.90
50586;DHT22;36542;51.700;8.846;2023-11-19T19:21:03;9.40;99.90
50586;DHT22;36542;51.700;8.846;2023-11-19T19:23:28;9.40;99.90
50586;DHT22;36542;51.700;8.846;2023-11-19T19:25:54;9.50;99.90
50586;DHT22;36542;51.700;8.846;2023-11-19T19:28:19;9.50;99.90
50586;DHT22;36542;51.700;8.846;2023-11-19T19:30:45;9.50;99.90
50586;DHT22;36542;51.700;8.846;2023-11-19T19:33:10;9.40;99.90
50586;DHT22;36542;51.700;8.846;2023-11-19T19:35:37;9.40;99.90
50586;DHT22;36542;51.700;8.846;2023-11-19T19:38:02;9.40;99.90
50586;DHT22;36542;51.700;8.846;2023-11-19T19:40:28;9.40;99.90
50586;DHT22;36542;51.700;8.846;2023-11-19T19:42:54;9.40;99.90
50586;DHT22;36542;51.700;8.846;2023-11-19T19:45:20;9.30;99.90
50586;DHT22;36542;51.700;8.846;2023-11-19T19:47:46;9.30;99.90
50586;DHT22;36542;51.700;8.846;2023-11-19T19:50:11;9.30;99.90
50586;DHT22;36542;51.700;8.846;2023-11-19T19:52:38;9.30;99.90
50586;DHT22;36542;51.700;8.846;2023-11-19T19:55:05;9.30;99.90
50586;DHT22;36542;51.700;8.846;2023-11-19T19:57:32;9.30;99.90
50586;DHT22;36542;51.700;8.846;2023-11-19T20:00:02;9.20;99.90
50586;DHT22;36542;51.700;8.846;2023-11-19T20:02:32;9.20;99.90
50586;DHT22;36542;51.700;8.846;2023-11-19T20:04:57;9.20;99.90
50586;DHT22;36542;51.700;8.846;2023-11-19T20:07:23;9.20;99.90
50586;DHT22;36542;51.700;8.846;2023-11-19T20:09:48;9.20;99.90
50586;DHT22;36542;51.700;8.846;2023-11-19T20:12:15;9.20;99.90
50586;DHT22;36542;51.700;8.846;2023-11-19T20:14:41;9.20;99.90
50586;DHT22;36542;51.700;8.846;2023-11-19T20:17:07;9.20;99.90
50586;DHT22;36542;51.700;8.846;2023-11-19T20:19:37;9.30;99.90
50586;DHT22;36542;51.700;8.846;2023-11-19T20:22:03;9.30;99.90
50586;DHT22;36542;51.700;8.846;2023-11-19T20:24:29;9.30;99.90
50586;DHT22;36542;51.700;8.846;2023-11-19T20:26:54;9.30;99.90
50586;DHT22;36542;51.700;8.846;2023-11-19T20:29:20;9.30;99.90
50586;DHT22;36542;51.700;8.846;2023-11-19T20:31:45;9.30;99.90
50586;DHT22;36542;51.700;8.846;2023-11-19T20:34:11;9.40;99.90
50586;DHT22;36542;51.700;8.846;2023-11-19T20:36:36;9.40;99.90
50586;DHT22;36542;51.700;8.846;2023-11-19T20:39:02;9.40;99.90